sensor_id;sensor_type;location;lat;lon;timestamp;temperature;humidity
65568;DHT22;52211;50.154;8.682;2023-11-21T00:00:14;12.20;70.40
65568;DHT22;52211;50.154;8.682;2023-11-21T00:02:42;12.20;69.80
65568;DHT22;52211;50.154;8.682;2023-11-21T00:05:16;12.20;69.90
65568;DHT22;52211;50.154;8.682;2023-11-21T00:07:46;12.20;69.80
65568;DHT22;52211;50.154;8.682;2023-11-21T00:10:13;12.20;69.90
65568;DHT22;52211;50.154;8.682;2023-11-21T00:12:41;12.30;70.00
65568;DHT22;52211;50.154;8.682;2023-11-21T00:15:10;12.20;70.00
65568;DHT22;52211;50.154;8.682;2023-11-21T00:17:40;12.30;70.00
65568;DHT22;52211;50.154;8.682;2023-11-21T00:20:12;12.30;70.10
65568;DHT22;52211;50.154;8.682;2023-11-21T00:22:43;12.30;70.20
65568;DHT22;52211;50.154;8.682;2023-11-21T00:25:10;12.30;70.20
65568;DHT22;52211;50.154;8.682;2023-11-21T00:27:38;12.30;70.10
65568;DHT22;52211;50.154;8.682;2023-11-21T00:30:08;12.30;70.10
65568;DHT22;52211;50.154;8.682;2023-11-21T00:32:38;12.30;70.10
65568;DHT22;52211;50.154;8.682;2023-11-21T00:35:11;12.40;70.20
65568;DHT22;52211;50.154;8.682;2023-11-21T00:37:40;12.40;70.20
65568;DHT22;52211;50.154;8.682;2023-11-21T00:40:15;12.40;70.20
65568;DHT22;52211;50.154;8.682;2023-11-21T00:42:42;12.40;70.10
65568;DHT22;52211;50.154;8.682;2023-11-21T00:45:13;12.40;70.10
65568;DHT22;52211;50.154;8.682;2023-11-21T00:47:45;12.30;70.10
65568;DHT22;52211;50.154;8.682;2023-11-21T00:50:14;12.40;70.30
65568;DHT22;52211;50.154;8.682;2023-11-21T00:52:44;12.40;70.20
65568;DHT22;52211;50.154;8.682;2023-11-21T00:55:14;12.40;70.10
65568;DHT22;52211;50.154;8.682;2023-11-21T00:57:44;12.40;70.20
65568;DHT22;52211;50.154;8.682;2023-11-21T01:00:12;12.50;70.20
65568;DHT22;52211;50.154;8.682;2023-11-21T01:02:44;12.40;70.20
65568;DHT22;52211;50.154;8.682;2023-11-21T01:05:14;12.40;70.20
65568;DHT22;52211;50.154;8.682;2023-11-21T01:07:43;12.40;70.30
65568;DHT22;52211;50.154;8.682;2023-11-21T01:10:10;12.40;70.30
65568;DHT22;52211;50.154;8.682;2023-11-21T01:12:40;12.40;70.30
65568;DHT22;52211;50.154;8.682;2023-11-21T01:15:12;12.40;70.40
65568;DHT22;52211;50.154;8.682;2023-11-21T01:17:44;12.40;70.40
65568;DHT22;52211;50.154;8.682;2023-11-21T01:20:13;12.50;70.50
65568;DHT22;52211;50.154;8.682;2023-11-21T01:22:41;12.40;70.50
65568;DHT22;52211;50.154;8.682;2023-11-21T01:25:11;12.50;70.50
65568;DHT22;52211;50.154;8.682;2023-11-21T01:27:47;12.50;70.60
65568;DHT22;52211;50.154;8.682;2023-11-21T01:30:17;12.40;70.60
65568;DHT22;52211;50.154;8.682;2023-11-21T01:32:44;12.40;70.60
65568;DHT22;52211;50.154;8.682;2023-11-21T01:35:13;12.40;70.60
65568;DHT22;52211;50.154;8.682;2023-11-21T01:37:42;12.40;70.60
65568;DHT22;52211;50.154;8.682;2023-11-21T01:40:10;12.40;70.60
65568;DHT22;52211;50.154;8.682;2023-11-21T01:42:44;12.40;70.70
65568;DHT22;52211;50.154;8.682;2023-11-21T01:45:14;12.40;70.80
65568;DHT22;52211;50.154;8.682;2023-11-21T01:47:48;12.40;70.80
65568;DHT22;52211;50.154;8.682;2023-11-21T01:50:19;12.40;70.90
65568;DHT22;52211;50.154;8.682;2023-11-21T01:52:55;12.40;70.80
65568;DHT22;52211;50.154;8.682;2023-11-21T01:55:25;12.40;71.00
65568;DHT22;52211;50.154;8.682;2023-11-21T01:57:56;12.40;70.90
65568;DHT22;52211;50.154;8.682;2023-11-21T02:00:26;12.40;71.00
65568;DHT22;52211;50.154;8.682;2023-11-21T02:02:56;12.40;70.90
65568;DHT22;52211;50.154;8.682;2023-11-21T02:05:29;12.30;70.90
65568;DHT22;52211;50.154;8.682;2023-11-21T02:07:58;12.40;71.00
65568;DHT22;52211;50.154;8.682;2023-11-21T02:10:27;12.40;71.10
65568;DHT22;52211;50.154;8.682;2023-11-21T02:12:57;13.00;72.00
65568;DHT22;52211;50.154;8.682;2023-11-21T02:15:30;12.40;71.10
65568;DHT22;52211;50.154;8.682;2023-11-21T02:17:57;12.40;71.30
65568;DHT22;52211;50.154;8.682;2023-11-21T02:20:25;12.40;71.20
65568;DHT22;52211;50.154;8.682;2023-11-21T02:22:57;12.50;71.20
65568;DHT22;52211;50.154;8.682;2023-11-21T02:25:33;12.40;71.20
65568;DHT22;52211;50.154;8.682;2023-11-21T02:28:04;12.40;71.30
65568;DHT22;52211;50.154;8.682;2023-11-21T02:30:35;12.50;71.30
65568;DHT22;52211;50.154;8.682;2023-11-21T02:33:06;12.50;71.30
65568;DHT22;52211;50.154;8.682;2023-11-21T02:35:36;12.50;71.30
65568;DHT22;52211;50.154;8.682;2023-11-21T02:38:04;12.50;71.30
65568;DHT22;52211;50.154;8.682;2023-11-21T02:40:33;12.50;71.30
65568;DHT22;52211;50.154;8.682;2023-11-21T02:43:02;12.40;71.20
65568;DHT22;52211;50.154;8.682;2023-11-21T02:45:32;12.50;71.30
65568;DHT22;52211;50.154;8.682;2023-11-21T02:48:05;12.40;71.30
65568;DHT22;52211;50.154;8.682;2023-11-21T02:50:35;12.40;71.40
65568;DHT22;52211;50.154;8.682;2023-11-21T02:53:06;12.40;71.30
65568;DHT22;52211;50.154;8.682;2023-11-21T02:55:36;12.40;71.30
65568;DHT22;52211;50.154;8.682;2023-11-21T02:58:05;12.40;71.40
65568;DHT22;52211;50.154;8.682;2023-11-21T03:00:33;12.40;71.30
65568;DHT22;52211;50.154;8.682;2023-11-21T03:03:00;12.40;71.40
65568;DHT22;52211;50.154;8.682;2023-11-21T03:05:33;12.30;71.40
65568;DHT22;52211;50.154;8.682;2023-11-21T03:08:06;12.30;71.40
65568;DHT22;52211;50.154;8.682;2023-11-21T03:10:35;12.40;71.60
65568;DHT22;52211;50.154;8.682;2023-11-21T03:13:05;12.40;71.60
65568;DHT22;52211;50.154;8.682;2023-11-21T03:15:32;12.40;71.60
65568;DHT22;52211;50.154;8.682;2023-11-21T03:18:02;12.30;72.10
65568;DHT22;52211;50.154;8.682;2023-11-21T03:20:31;12.40;71.60
65568;DHT22;52211;50.154;8.682;2023-11-21T03:23:00;12.40;71.60
65568;DHT22;52211;50.154;8.682;2023-11-21T03:25:29;12.30;71.60
65568;DHT22;52211;50.154;8.682;2023-11-21T03:27:59;12.40;71.70
65568;DHT22;52211;50.154;8.682;2023-11-21T03:30:31;12.40;71.70
65568;DHT22;52211;50.154;8.682;2023-11-21T03:33:00;12.40;71.80
65568;DHT22;52211;50.154;8.682;2023-11-21T03:35:30;12.40;71.60
65568;DHT22;52211;50.154;8.682;2023-11-21T03:37:59;12.40;71.70
65568;DHT22;52211;50.154;8.682;2023-11-21T03:40:28;12.40;71.80
65568;DHT22;52211;50.154;8.682;2023-11-21T03:42:55;12.40;71.70
65568;DHT22;52211;50.154;8.682;2023-11-21T03:45:22;12.40;71.60
65568;DHT22;52211;50.154;8.682;2023-11-21T03:47:49;12.40;71.70
65568;DHT22;52211;50.154;8.682;2023-11-21T03:50:21;12.40;71.70
65568;DHT22;52211;50.154;8.682;2023-11-21T03:52:48;12.40;71.70
65568;DHT22;52211;50.154;8.682;2023-11-21T03:55:18;12.40;71.70
65568;DHT22;52211;50.154;8.682;2023-11-21T03:57:53;12.40;71.60
65568;DHT22;52211;50.154;8.682;2023-11-21T04:00:20;12.30;71.60
65568;DHT22;52211;50.154;8.682;2023-11-21T04:02:47;12.30;71.60
65568;DHT22;52211;50.154;8.682;2023-11-21T04:05:22;12.30;71.60
65568;DHT22;52211;50.154;8.682;2023-11-21T04:07:51;12.30;71.70
65568;DHT22;52211;50.154;8.682;2023-11-21T04:10:21;12.30;71.70
65568;DHT22;52211;50.154;8.682;2023-11-21T04:12:48;12.20;71.70
65568;DHT22;52211;50.154;8.682;2023-11-21T04:15:15;12.30;71.80
65568;DHT22;52211;50.154;8.682;2023-11-21T04:17:44;12.20;71.80
65568;DHT22;52211;50.154;8.682;2023-11-21T04:20:16;12.30;71.90
65568;DHT22;52211;50.154;8.682;2023-11-21T04:22:47;12.20;71.80
65568;DHT22;52211;50.154;8.682;2023-11-21T04:25:15;12.30;71.90
65568;DHT22;52211;50.154;8.682;2023-11-21T04:27:44;12.20;71.90
65568;DHT22;52211;50.154;8.682;2023-11-21T04:30:13;12.20;72.00
65568;DHT22;52211;50.154;8.682;2023-11-21T04:32:43;12.20;71.90
65568;DHT22;52211;50.154;8.682;2023-11-21T04:35:10;12.30;71.90
65568;DHT22;52211;50.154;8.682;2023-11-21T04:37:41;12.30;71.90
65568;DHT22;52211;50.154;8.682;2023-11-21T04:40:11;12.30;72.10
65568;DHT22;52211;50.154;8.682;2023-11-21T04:42:45;12.30;72.00
65568;DHT22;52211;50.154;8.682;2023-11-21T04:45:15;12.30;72.10
65568;DHT22;52211;50.154;8.682;2023-11-21T04:47:42;12.30;72.10
65568;DHT22;52211;50.154;8.682;2023-11-21T04:50:10;12.30;72.10
65568;DHT22;52211;50.154;8.682;2023-11-21T04:52:37;12.50;72.90
65568;DHT22;52211;50.154;8.682;2023-11-21T04:55:06;12.30;72.10
65568;DHT22;52211;50.154;8.682;2023-11-21T04:57:37;12.30;72.20
65568;DHT22;52211;50.154;8.682;2023-11-21T05:00:07;12.30;72.10
65568;DHT22;52211;50.154;8.682;2023-11-21T05:02:38;12.30;72.10
65568;DHT22;52211;50.154;8.682;2023-11-21T05:05:11;12.40;72.10
65568;DHT22;52211;50.154;8.682;2023-11-21T05:07:41;12.30;72.00
65568;DHT22;52211;50.154;8.682;2023-11-21T05:10:09;12.30;72.00
65568;DHT22;52211;50.154;8.682;2023-11-21T05:12:41;12.30;72.00
65568;DHT22;52211;50.154;8.682;2023-11-21T05:15:09;12.30;72.10
65568;DHT22;52211;50.154;8.682;2023-11-21T05:17:41;12.30;72.00
65568;DHT22;52211;50.154;8.682;2023-11-21T05:20:13;12.30;72.10
65568;DHT22;52211;50.154;8.682;2023-11-21T05:22:44;12.30;72.00
65568;DHT22;52211;50.154;8.682;2023-11-21T05:25:11;12.30;72.00
65568;DHT22;52211;50.154;8.682;2023-11-21T05:27:41;12.30;72.10
65568;DHT22;52211;50.154;8.682;2023-11-21T05:30:08;12.30;72.00
65568;DHT22;52211;50.154;8.682;2023-11-21T05:32:41;12.30;72.00
65568;DHT22;52211;50.154;8.682;2023-11-21T05:35:13;12.30;72.10
65568;DHT22;52211;50.154;8.682;2023-11-21T05:37:47;12.30;72.10
65568;DHT22;52211;50.154;8.682;2023-11-21T05:40:15;12.30;72.10
65568;DHT22;52211;50.154;8.682;2023-11-21T05:42:49;12.30;72.10
65568;DHT22;52211;50.154;8.682;2023-11-21T05:45:21;12.30;72.20
65568;DHT22;52211;50.154;8.682;2023-11-21T05:47:52;12.20;72.20
65568;DHT22;52211;50.154;8.682;2023-11-21T05:50:22;12.30;72.30
65568;DHT22;52211;50.154;8.682;2023-11-21T05:52:49;12.30;72.20
65568;DHT22;52211;50.154;8.682;2023-11-21T05:55:22;12.20;72.20
65568;DHT22;52211;50.154;8.682;2023-11-21T05:57:52;12.20;72.40
65568;DHT22;52211;50.154;8.682;2023-11-21T06:00:20;12.30;72.30
65568;DHT22;52211;50.154;8.682;2023-11-21T06:02:52;12.30;72.40
65568;DHT22;52211;50.154;8.682;2023-11-21T06:05:25;12.20;72.30
65568;DHT22;52211;50.154;8.682;2023-11-21T06:07:54;12.30;72.50
65568;DHT22;52211;50.154;8.682;2023-11-21T06:10:25;12.30;72.30
65568;DHT22;52211;50.154;8.682;2023-11-21T06:12:53;12.20;72.30
65568;DHT22;52211;50.154;8.682;2023-11-21T06:15:20;12.30;72.30
65568;DHT22;52211;50.154;8.682;2023-11-21T06:17:49;12.30;72.20
65568;DHT22;52211;50.154;8.682;2023-11-21T06:20:22;12.20;72.20
65568;DHT22;52211;50.154;8.682;2023-11-21T06:22:50;12.20;72.20
65568;DHT22;52211;50.154;8.682;2023-11-21T06:25:22;12.20;72.20
65568;DHT22;52211;50.154;8.682;2023-11-21T06:27:50;12.20;72.30
65568;DHT22;52211;50.154;8.682;2023-11-21T06:30:21;12.20;72.30
65568;DHT22;52211;50.154;8.682;2023-11-21T06:32:49;12.20;72.30
65568;DHT22;52211;50.154;8.682;2023-11-21T06:35:20;12.20;72.20
65568;DHT22;52211;50.154;8.682;2023-11-21T06:37:49;12.20;72.20
65568;DHT22;52211;50.154;8.682;2023-11-21T06:40:19;12.10;72.10
65568;DHT22;52211;50.154;8.682;2023-11-21T06:42:47;12.10;72.10
65568;DHT22;52211;50.154;8.682;2023-11-21T06:45:17;12.10;72.20
65568;DHT22;52211;50.154;8.682;2023-11-21T06:47:49;12.10;72.30
65568;DHT22;52211;50.154;8.682;2023-11-21T06:50:17;12.10;72.30
65568;DHT22;52211;50.154;8.682;2023-11-21T06:52:51;12.10;72.40
65568;DHT22;52211;50.154;8.682;2023-11-21T06:55:18;12.10;72.40
65568;DHT22;52211;50.154;8.682;2023-11-21T06:57:47;12.10;72.30
65568;DHT22;52211;50.154;8.682;2023-11-21T07:00:16;12.10;72.30
65568;DHT22;52211;50.154;8.682;2023-11-21T07:02:46;12.10;72.40
65568;DHT22;52211;50.154;8.682;2023-11-21T07:05:15;12.00;72.30
65568;DHT22;52211;50.154;8.682;2023-11-21T07:07:50;12.10;72.40
65568;DHT22;52211;50.154;8.682;2023-11-21T07:10:19;12.00;72.30
65568;DHT22;52211;50.154;8.682;2023-11-21T07:12:51;12.00;72.30
65568;DHT22;52211;50.154;8.682;2023-11-21T07:15:20;12.00;72.30
65568;DHT22;52211;50.154;8.682;2023-11-21T07:17:47;12.00;72.40
65568;DHT22;52211;50.154;8.682;2023-11-21T07:20:17;12.00;72.30
65568;DHT22;52211;50.154;8.682;2023-11-21T07:22:44;12.00;72.30
65568;DHT22;52211;50.154;8.682;2023-11-21T07:25:13;12.00;72.20
65568;DHT22;52211;50.154;8.682;2023-11-21T07:27:43;12.00;72.20
65568;DHT22;52211;50.154;8.682;2023-11-21T07:30:13;11.90;72.20
65568;DHT22;52211;50.154;8.682;2023-11-21T07:32:43;11.90;72.30
65568;DHT22;52211;50.154;8.682;2023-11-21T07:35:13;11.90;72.30
65568;DHT22;52211;50.154;8.682;2023-11-21T07:37:40;11.90;72.40
65568;DHT22;52211;50.154;8.682;2023-11-21T07:40:08;11.90;72.40
65568;DHT22;52211;50.154;8.682;2023-11-21T07:42:35;11.90;72.40
65568;DHT22;52211;50.154;8.682;2023-11-21T07:45:04;11.90;72.40
65568;DHT22;52211;50.154;8.682;2023-11-21T07:47:33;11.90;72.40
65568;DHT22;52211;50.154;8.682;2023-11-21T07:50:03;11.90;72.60
65568;DHT22;52211;50.154;8.682;2023-11-21T07:52:32;11.90;73.20
65568;DHT22;52211;50.154;8.682;2023-11-21T07:55:00;11.90;72.60
65568;DHT22;52211;50.154;8.682;2023-11-21T07:57:30;11.90;72.60
65568;DHT22;52211;50.154;8.682;2023-11-21T07:59:59;12.00;72.70
65568;DHT22;52211;50.154;8.682;2023-11-21T08:02:29;11.90;72.60
65568;DHT22;52211;50.154;8.682;2023-11-21T08:04:56;12.00;72.70
65568;DHT22;52211;50.154;8.682;2023-11-21T08:07:28;12.00;72.70
65568;DHT22;52211;50.154;8.682;2023-11-21T08:09:55;12.00;72.60
65568;DHT22;52211;50.154;8.682;2023-11-21T08:12:27;12.00;72.60
65568;DHT22;52211;50.154;8.682;2023-11-21T08:14:54;12.10;72.50
65568;DHT22;52211;50.154;8.682;2023-11-21T08:17:21;12.10;72.50
65568;DHT22;52211;50.154;8.682;2023-11-21T08:19:50;12.00;72.40
65568;DHT22;52211;50.154;8.682;2023-11-21T08:22:18;12.10;72.40
65568;DHT22;52211;50.154;8.682;2023-11-21T08:24:45;12.00;72.40
65568;DHT22;52211;50.154;8.682;2023-11-21T08:27:15;12.00;72.40
65568;DHT22;52211;50.154;8.682;2023-11-21T08:29:43;12.10;72.40
65568;DHT22;52211;50.154;8.682;2023-11-21T08:32:10;12.00;72.40
65568;DHT22;52211;50.154;8.682;2023-11-21T08:34:41;12.10;72.50
65568;DHT22;52211;50.154;8.682;2023-11-21T08:37:14;12.10;72.60
65568;DHT22;52211;50.154;8.682;2023-11-21T08:39:44;12.10;72.60
65568;DHT22;52211;50.154;8.682;2023-11-21T08:42:14;12.10;72.60
65568;DHT22;52211;50.154;8.682;2023-11-21T08:44:44;12.10;72.60
65568;DHT22;52211;50.154;8.682;2023-11-21T08:47:12;12.20;72.60
65568;DHT22;52211;50.154;8.682;2023-11-21T08:49:41;12.20;72.50
65568;DHT22;52211;50.154;8.682;2023-11-21T08:52:12;12.20;72.40
65568;DHT22;52211;50.154;8.682;2023-11-21T08:54:39;12.20;72.50
65568;DHT22;52211;50.154;8.682;2023-11-21T08:57:06;12.20;72.50
65568;DHT22;52211;50.154;8.682;2023-11-21T08:59:35;12.20;72.40
65568;DHT22;52211;50.154;8.682;2023-11-21T09:02:02;12.20;72.50
65568;DHT22;52211;50.154;8.682;2023-11-21T09:04:37;12.30;72.50
65568;DHT22;52211;50.154;8.682;2023-11-21T09:07:08;12.30;72.50
65568;DHT22;52211;50.154;8.682;2023-11-21T09:09:37;12.30;72.50
65568;DHT22;52211;50.154;8.682;2023-11-21T09:12:04;12.40;72.50
65568;DHT22;52211;50.154;8.682;2023-11-21T09:14:33;12.30;72.50
65568;DHT22;52211;50.154;8.682;2023-11-21T09:17:01;12.30;72.40
65568;DHT22;52211;50.154;8.682;2023-11-21T09:19:31;12.30;72.40
65568;DHT22;52211;50.154;8.682;2023-11-21T09:22:00;12.40;72.40
65568;DHT22;52211;50.154;8.682;2023-11-21T09:24:27;12.40;72.50
65568;DHT22;52211;50.154;8.682;2023-11-21T09:26:56;12.40;72.40
65568;DHT22;52211;50.154;8.682;2023-11-21T09:29:29;12.40;72.50
65568;DHT22;52211;50.154;8.682;2023-11-21T09:31:58;12.40;72.40
65568;DHT22;52211;50.154;8.682;2023-11-21T09:34:30;12.40;72.30
65568;DHT22;52211;50.154;8.682;2023-11-21T09:37:00;12.40;72.10
65568;DHT22;52211;50.154;8.682;2023-11-21T09:39:32;12.50;72.10
65568;DHT22;52211;50.154;8.682;2023-11-21T09:42:08;12.40;71.90
65568;DHT22;52211;50.154;8.682;2023-11-21T09:45:03;12.40;71.90
65568;DHT22;52211;50.154;8.682;2023-11-21T09:47:38;12.40;71.70
65568;DHT22;52211;50.154;8.682;2023-11-21T09:50:09;12.30;71.80
65568;DHT22;52211;50.154;8.682;2023-11-21T09:53:03;12.30;71.90
65568;DHT22;52211;50.154;8.682;2023-11-21T09:55:47;12.30;72.10
65568;DHT22;52211;50.154;8.682;2023-11-21T09:58:19;12.20;72.20
65568;DHT22;52211;50.154;8.682;2023-11-21T10:00:53;12.30;72.20
65568;DHT22;52211;50.154;8.682;2023-11-21T10:03:26;12.30;72.20
65568;DHT22;52211;50.154;8.682;2023-11-21T10:05:59;12.30;72.10
65568;DHT22;52211;50.154;8.682;2023-11-21T10:08:27;12.40;72.30
65568;DHT22;52211;50.154;8.682;2023-11-21T10:11:17;12.40;72.40
65568;DHT22;52211;50.154;8.682;2023-11-21T10:13:46;12.40;72.40
65568;DHT22;52211;50.154;8.682;2023-11-21T10:16:22;12.50;72.40
65568;DHT22;52211;50.154;8.682;2023-11-21T10:18:53;12.50;72.40
65568;DHT22;52211;50.154;8.682;2023-11-21T10:21:39;12.60;73.00
65568;DHT22;52211;50.154;8.682;2023-11-21T10:24:07;12.70;72.30
65568;DHT22;52211;50.154;8.682;2023-11-21T10:26:36;12.70;72.20
65568;DHT22;52211;50.154;8.682;2023-11-21T10:29:19;12.80;72.20
65568;DHT22;52211;50.154;8.682;2023-11-21T10:31:51;12.90;72.30
65568;DHT22;52211;50.154;8.682;2023-11-21T10:34:21;12.90;72.30
65568;DHT22;52211;50.154;8.682;2023-11-21T10:36:48;13.10;72.30
65568;DHT22;52211;50.154;8.682;2023-11-21T10:39:19;13.10;72.20
65568;DHT22;52211;50.154;8.682;2023-11-21T10:41:50;13.20;72.20
65568;DHT22;52211;50.154;8.682;2023-11-21T10:44:20;13.40;72.00
65568;DHT22;52211;50.154;8.682;2023-11-21T10:46:49;13.40;71.80
65568;DHT22;52211;50.154;8.682;2023-11-21T10:49:20;13.50;71.70
65568;DHT22;52211;50.154;8.682;2023-11-21T10:51:47;13.60;71.70
65568;DHT22;52211;50.154;8.682;2023-11-21T10:54:23;13.70;71.50
65568;DHT22;52211;50.154;8.682;2023-11-21T10:57:00;13.70;72.00
65568;DHT22;52211;50.154;8.682;2023-11-21T10:59:33;13.80;70.70
65568;DHT22;52211;50.154;8.682;2023-11-21T11:04:54;13.80;70.90
65568;DHT22;52211;50.154;8.682;2023-11-21T11:07:27;13.90;71.20
65568;DHT22;52211;50.154;8.682;2023-11-21T11:09:59;14.10;71.30
65568;DHT22;52211;50.154;8.682;2023-11-21T11:12:29;14.10;71.30
65568;DHT22;52211;50.154;8.682;2023-11-21T11:15:00;14.20;71.10
65568;DHT22;52211;50.154;8.682;2023-11-21T11:17:29;14.40;71.00
65568;DHT22;52211;50.154;8.682;2023-11-21T11:20:00;14.50;70.90
65568;DHT22;52211;50.154;8.682;2023-11-21T11:22:37;14.60;70.80
65568;DHT22;52211;50.154;8.682;2023-11-21T11:28:14;14.80;70.20
65568;DHT22;52211;50.154;8.682;2023-11-21T11:33:46;14.90;70.00
65568;DHT22;52211;50.154;8.682;2023-11-21T11:36:37;15.00;69.80
65568;DHT22;52211;50.154;8.682;2023-11-21T11:39:29;15.10;69.80
65568;DHT22;52211;50.154;8.682;2023-11-21T11:42:06;15.10;69.10
65568;DHT22;52211;50.154;8.682;2023-11-21T11:47:32;15.20;69.60
65568;DHT22;52211;50.154;8.682;2023-11-21T11:50:05;15.20;69.50
65568;DHT22;52211;50.154;8.682;2023-11-21T11:52:46;15.20;70.20
65568;DHT22;52211;50.154;8.682;2023-11-21T11:55:21;15.20;69.90
65568;DHT22;52211;50.154;8.682;2023-11-21T11:57:58;15.20;69.30
65568;DHT22;52211;50.154;8.682;2023-11-21T12:02:59;15.30;69.30
65568;DHT22;52211;50.154;8.682;2023-11-21T12:05:33;15.30;69.70
65568;DHT22;52211;50.154;8.682;2023-11-21T12:08:11;15.30;68.80
65568;DHT22;52211;50.154;8.682;2023-11-21T12:10:43;15.40;68.80
65568;DHT22;52211;50.154;8.682;2023-11-21T12:13:14;15.30;68.80
65568;DHT22;52211;50.154;8.682;2023-11-21T12:15:42;15.30;68.70
65568;DHT22;52211;50.154;8.682;2023-11-21T12:18:15;15.30;68.60
65568;DHT22;52211;50.154;8.682;2023-11-21T12:20:42;15.20;68.50
65568;DHT22;52211;50.154;8.682;2023-11-21T12:23:13;15.20;68.60
65568;DHT22;52211;50.154;8.682;2023-11-21T12:25:41;15.30;68.50
65568;DHT22;52211;50.154;8.682;2023-11-21T12:28:09;15.20;68.10
65568;DHT22;52211;50.154;8.682;2023-11-21T12:30:42;15.20;68.10
65568;DHT22;52211;50.154;8.682;2023-11-21T12:33:12;15.10;67.60
65568;DHT22;52211;50.154;8.682;2023-11-21T12:35:44;15.00;67.90
65568;DHT22;52211;50.154;8.682;2023-11-21T12:38:11;14.90;67.80
65568;DHT22;52211;50.154;8.682;2023-11-21T12:40:38;14.70;67.90
65568;DHT22;52211;50.154;8.682;2023-11-21T12:43:08;14.70;68.00
65568;DHT22;52211;50.154;8.682;2023-11-21T12:45:36;14.60;67.70
65568;DHT22;52211;50.154;8.682;2023-11-21T12:48:05;14.50;67.70
65568;DHT22;52211;50.154;8.682;2023-11-21T12:50:39;14.40;67.80
65568;DHT22;52211;50.154;8.682;2023-11-21T12:53:08;14.30;68.00
65568;DHT22;52211;50.154;8.682;2023-11-21T12:55:43;14.30;68.10
65568;DHT22;52211;50.154;8.682;2023-11-21T12:58:17;14.30;68.20
65568;DHT22;52211;50.154;8.682;2023-11-21T13:00:50;14.20;68.30
65568;DHT22;52211;50.154;8.682;2023-11-21T13:03:21;14.20;68.50
65568;DHT22;52211;50.154;8.682;2023-11-21T13:05:53;14.20;68.40
65568;DHT22;52211;50.154;8.682;2023-11-21T13:08:25;14.10;68.40
65568;DHT22;52211;50.154;8.682;2023-11-21T13:10:59;14.20;68.40
65568;DHT22;52211;50.154;8.682;2023-11-21T13:13:30;14.10;68.40
65568;DHT22;52211;50.154;8.682;2023-11-21T13:16:02;14.10;68.00
65568;DHT22;52211;50.154;8.682;2023-11-21T13:18:35;14.10;68.20
65568;DHT22;52211;50.154;8.682;2023-11-21T13:21:08;14.00;68.20
65568;DHT22;52211;50.154;8.682;2023-11-21T13:23:41;14.00;68.40
65568;DHT22;52211;50.154;8.682;2023-11-21T13:26:10;14.00;68.50
65568;DHT22;52211;50.154;8.682;2023-11-21T13:28:40;14.00;68.60
65568;DHT22;52211;50.154;8.682;2023-11-21T13:31:13;14.00;68.60
65568;DHT22;52211;50.154;8.682;2023-11-21T13:33:53;14.10;68.70
65568;DHT22;52211;50.154;8.682;2023-11-21T13:36:26;14.10;68.70
65568;DHT22;52211;50.154;8.682;2023-11-21T13:38:57;14.10;68.50
65568;DHT22;52211;50.154;8.682;2023-11-21T13:41:27;14.20;68.40
65568;DHT22;52211;50.154;8.682;2023-11-21T13:43:57;14.10;68.30
65568;DHT22;52211;50.154;8.682;2023-11-21T13:46:44;14.10;68.30
65568;DHT22;52211;50.154;8.682;2023-11-21T13:49:12;14.10;68.40
65568;DHT22;52211;50.154;8.682;2023-11-21T13:51:41;14.10;68.40
65568;DHT22;52211;50.154;8.682;2023-11-21T13:54:11;14.10;68.40
65568;DHT22;52211;50.154;8.682;2023-11-21T13:56:38;14.10;68.40
65568;DHT22;52211;50.154;8.682;2023-11-21T13:59:13;14.00;68.30
65568;DHT22;52211;50.154;8.682;2023-11-21T14:01:55;14.00;68.40
65568;DHT22;52211;50.154;8.682;2023-11-21T14:04:27;13.90;68.40
65568;DHT22;52211;50.154;8.682;2023-11-21T14:06:56;13.90;68.50
65568;DHT22;52211;50.154;8.682;2023-11-21T14:09:30;13.80;68.60
65568;DHT22;52211;50.154;8.682;2023-11-21T14:12:02;13.80;68.70
65568;DHT22;52211;50.154;8.682;2023-11-21T14:14:35;13.80;68.80
65568;DHT22;52211;50.154;8.682;2023-11-21T14:17:02;13.70;68.80
65568;DHT22;52211;50.154;8.682;2023-11-21T14:19:33;13.70;68.80
65568;DHT22;52211;50.154;8.682;2023-11-21T14:22:09;13.70;68.90
65568;DHT22;52211;50.154;8.682;2023-11-21T14:24:41;13.70;68.90
65568;DHT22;52211;50.154;8.682;2023-11-21T14:27:13;13.60;69.00
65568;DHT22;52211;50.154;8.682;2023-11-21T14:29:41;13.60;69.00
65568;DHT22;52211;50.154;8.682;2023-11-21T14:32:11;13.60;69.10
65568;DHT22;52211;50.154;8.682;2023-11-21T14:34:38;13.60;69.20
65568;DHT22;52211;50.154;8.682;2023-11-21T14:37:09;13.60;69.30
65568;DHT22;52211;50.154;8.682;2023-11-21T14:39:40;13.50;69.30
65568;DHT22;52211;50.154;8.682;2023-11-21T14:42:13;13.50;69.30
65568;DHT22;52211;50.154;8.682;2023-11-21T14:44:47;13.50;69.30
65568;DHT22;52211;50.154;8.682;2023-11-21T14:47:14;13.50;69.40
65568;DHT22;52211;50.154;8.682;2023-11-21T14:49:54;13.50;69.40
65568;DHT22;52211;50.154;8.682;2023-11-21T14:52:26;13.40;69.40
65568;DHT22;52211;50.154;8.682;2023-11-21T14:55:03;13.40;70.00
65568;DHT22;52211;50.154;8.682;2023-11-21T14:57:50;13.40;69.50
65568;DHT22;52211;50.154;8.682;2023-11-21T15:00:20;13.40;69.40
65568;DHT22;52211;50.154;8.682;2023-11-21T15:03:03;13.30;69.50
65568;DHT22;52211;50.154;8.682;2023-11-21T15:05:35;13.30;69.60
65568;DHT22;52211;50.154;8.682;2023-11-21T15:08:08;13.20;69.60
65568;DHT22;52211;50.154;8.682;2023-11-21T15:10:58;13.20;69.60
65568;DHT22;52211;50.154;8.682;2023-11-21T15:13:25;13.20;69.70
65568;DHT22;52211;50.154;8.682;2023-11-21T15:15:56;13.10;69.70
65568;DHT22;52211;50.154;8.682;2023-11-21T15:18:27;13.10;69.80
65568;DHT22;52211;50.154;8.682;2023-11-21T15:20:55;13.00;69.80
65568;DHT22;52211;50.154;8.682;2023-11-21T15:23:24;13.00;69.90
65568;DHT22;52211;50.154;8.682;2023-11-21T15:26:02;13.00;70.00
65568;DHT22;52211;50.154;8.682;2023-11-21T15:28:34;13.00;70.10
65568;DHT22;52211;50.154;8.682;2023-11-21T15:31:01;12.90;70.10
65568;DHT22;52211;50.154;8.682;2023-11-21T15:33:31;12.90;70.10
65568;DHT22;52211;50.154;8.682;2023-11-21T15:35:58;12.90;70.20
65568;DHT22;52211;50.154;8.682;2023-11-21T15:38:25;12.90;70.20
65568;DHT22;52211;50.154;8.682;2023-11-21T15:40:54;12.90;70.20
65568;DHT22;52211;50.154;8.682;2023-11-21T15:43:27;12.90;70.40
65568;DHT22;52211;50.154;8.682;2023-11-21T15:45:54;12.90;70.30
65568;DHT22;52211;50.154;8.682;2023-11-21T15:48:22;12.80;70.40
65568;DHT22;52211;50.154;8.682;2023-11-21T15:50:52;12.90;70.50
65568;DHT22;52211;50.154;8.682;2023-11-21T15:53:25;12.90;70.50
65568;DHT22;52211;50.154;8.682;2023-11-21T15:55:58;12.90;70.50
65568;DHT22;52211;50.154;8.682;2023-11-21T15:58:24;12.90;70.50
65568;DHT22;52211;50.154;8.682;2023-11-21T16:00:52;12.90;70.60
65568;DHT22;52211;50.154;8.682;2023-11-21T16:03:19;12.90;70.60
65568;DHT22;52211;50.154;8.682;2023-11-21T16:05:48;12.80;70.60